createdAt,value
2018-10-12T00:00:59.443Z,64.14
2018-10-12T00:03:27.812Z,64.42
2018-10-12T00:05:56.198Z,64.39
2018-10-12T00:08:24.596Z,64.28
2018-10-12T00:10:52.954Z,64.18
2018-10-12T00:13:21.308Z,64.22
2018-10-12T00:15:49.696Z,64.20
2018-10-12T00:18:18.100Z,64.14
2018-10-12T00:20:46.460Z,63.89
2018-10-12T00:23:15.456Z,64.25
2018-10-12T00:25:43.787Z,64.15
2018-10-12T00:28:12.171Z,64.34
2018-10-12T00:30:40.500Z,64.20
2018-10-12T00:33:08.832Z,63.86
2018-10-12T00:35:37.340Z,64.54
2018-10-12T00:38:05.820Z,64.47
2018-10-12T00:40:35.044Z,64.56
2018-10-12T00:43:03.417Z,64.78
2018-10-12T00:45:31.767Z,64.42
2018-10-12T00:48:01.895Z,64.93
2018-10-12T00:50:31.733Z,64.45
2018-10-12T00:53:00.513Z,64.28
2018-10-12T00:55:32.018Z,64.75
2018-10-12T00:58:00.441Z,64.86
2018-10-12T01:00:28.837Z,65.07
2018-10-12T01:02:57.828Z,64.84
2018-10-12T01:05:26.513Z,64.58
2018-10-12T01:07:54.884Z,65.05
2018-10-12T01:10:23.256Z,64.72
2018-10-12T01:12:51.669Z,64.95
2018-10-12T01:15:20.054Z,64.69
2018-10-12T01:17:48.456Z,64.70
2018-10-12T01:20:16.873Z,64.34
2018-10-12T01:22:45.242Z,64.24
2018-10-12T01:25:13.673Z,64.14
2018-10-12T01:27:43.105Z,63.65
2018-10-12T01:30:11.492Z,63.88
2018-10-12T01:32:45.138Z,63.48
2018-10-12T01:35:13.509Z,62.65
2018-10-12T01:37:41.933Z,63.61
2018-10-12T01:40:10.347Z,63.80
2018-10-12T01:42:38.752Z,63.05
2018-10-12T01:45:08.206Z,62.92
2018-10-12T01:47:36.705Z,63.03
2018-10-12T01:50:05.085Z,62.82
2018-10-12T01:52:33.482Z,62.22
2018-10-12T01:55:01.847Z,61.82
2018-10-12T01:57:30.233Z,61.25
2018-10-12T01:59:58.593Z,60.81
2018-10-12T02:02:26.960Z,61.26
2018-10-12T02:04:55.327Z,60.69
2018-10-12T02:07:23.713Z,60.16
2018-10-12T02:09:52.169Z,59.99
2018-10-12T02:12:21.633Z,60.04
2018-10-12T02:14:50.053Z,59.75
2018-10-12T02:17:20.492Z,59.90
2018-10-12T02:19:48.850Z,60.46
2018-10-12T02:22:17.257Z,59.84
2018-10-12T02:24:45.625Z,60.09
2018-10-12T02:27:14.001Z,60.35
2018-10-12T02:29:42.377Z,60.25
2018-10-12T02:32:10.757Z,60.35
2018-10-12T02:34:39.109Z,60.27
2018-10-12T02:37:08.509Z,60.13
2018-10-12T02:39:36.848Z,60.50
2018-10-12T02:42:06.660Z,60.54
2018-10-12T02:44:35.128Z,60.02
2018-10-12T02:47:04.532Z,60.36
2018-10-12T02:49:32.900Z,60.68
2018-10-12T02:52:01.264Z,60.64
2018-10-12T02:54:29.643Z,60.84
2018-10-12T02:56:58.024Z,60.68
2018-10-12T02:59:26.481Z,61.11
2018-10-12T03:01:54.948Z,61.19
2018-10-12T03:04:23.391Z,60.96
2018-10-12T03:06:51.945Z,61.15
2018-10-12T03:09:20.313Z,61.18
2018-10-12T03:11:48.698Z,61.39
2018-10-12T03:14:17.065Z,61.27
2018-10-12T03:16:45.441Z,61.34
2018-10-12T03:19:13.798Z,62.30
2018-10-12T03:21:42.148Z,61.52
2018-10-12T03:24:10.524Z,61.57
2018-10-12T03:26:38.877Z,61.39
2018-10-12T03:29:07.317Z,61.27
2018-10-12T03:31:36.801Z,61.61
2018-10-12T03:34:05.205Z,61.66
2018-10-12T03:36:33.592Z,61.78
2018-10-12T03:39:02.012Z,61.78
2018-10-12T03:41:30.532Z,61.94
2018-10-12T03:43:58.972Z,61.95
2018-10-12T03:46:27.353Z,61.65
2018-10-12T03:48:55.741Z,61.86
2018-10-12T03:51:24.193Z,62.31
2018-10-12T03:53:52.568Z,62.15
2018-10-12T03:56:21.953Z,62.67
2018-10-12T03:58:50.357Z,62.56
2018-10-12T04:01:18.708Z,63.16
2018-10-12T04:03:47.076Z,63.02
2018-10-12T04:06:15.425Z,63.29
2018-10-12T04:08:43.800Z,63.33
2018-10-12T04:11:12.157Z,63.47
2018-10-12T04:13:40.524Z,63.30
2018-10-12T04:16:08.908Z,63.33
2018-10-12T04:18:37.265Z,63.75
2018-10-12T04:21:05.664Z,63.79
2018-10-12T04:23:34.059Z,63.60
2018-10-12T04:26:02.428Z,64.35
2018-10-12T04:28:30.789Z,63.82
2018-10-12T04:30:59.131Z,63.88
2018-10-12T04:33:27.650Z,64.03
2018-10-12T04:35:56.111Z,63.87
2018-10-12T04:38:25.529Z,64.09
2018-10-12T04:41:03.977Z,64.63
2018-10-12T04:43:33.025Z,64.00
2018-10-12T04:46:02.901Z,64.40
2018-10-12T04:48:31.661Z,64.29
2018-10-12T04:51:00.582Z,64.49
2018-10-12T04:53:30.043Z,64.92
2018-10-12T04:55:58.572Z,64.57
2018-10-12T04:58:27.149Z,64.83
2018-10-12T05:00:56.675Z,64.99
2018-10-12T05:03:25.060Z,64.46
2018-10-12T05:05:54.411Z,64.79
2018-10-12T05:08:22.896Z,63.76
2018-10-12T05:10:52.284Z,64.56
2018-10-12T05:13:20.652Z,64.75
2018-10-12T05:15:49.333Z,64.51
2018-10-12T05:18:17.707Z,64.64
2018-10-12T05:20:46.080Z,64.46
2018-10-12T05:23:14.672Z,64.55
2018-10-12T05:25:43.532Z,64.44
2018-10-12T05:28:12.317Z,64.72
2018-10-12T05:30:40.781Z,64.86
2018-10-12T05:33:09.154Z,63.94
2018-10-12T05:35:37.530Z,64.41
2018-10-12T05:38:05.964Z,64.27
2018-10-12T05:40:35.417Z,64.65
2018-10-12T05:43:03.836Z,64.94
2018-10-12T05:45:32.193Z,64.45
2018-10-12T05:48:13.008Z,64.65
2018-10-12T05:50:41.464Z,65.45
2018-10-12T05:53:10.893Z,65.13
2018-10-12T05:55:39.363Z,65.40
2018-10-12T05:58:07.709Z,65.47
2018-10-12T06:00:36.101Z,64.89
2018-10-12T06:03:07.345Z,64.76
2018-10-12T06:05:35.884Z,64.96
2018-10-12T06:08:04.323Z,64.81
2018-10-12T06:10:33.704Z,65.31
2018-10-12T06:13:02.141Z,65.15
2018-10-12T06:15:30.549Z,64.55
2018-10-12T06:17:59.345Z,64.30
2018-10-12T06:20:27.724Z,64.33
2018-10-12T06:22:56.128Z,63.81
2018-10-12T06:25:24.535Z,64.08
2018-10-12T06:27:52.954Z,63.67
2018-10-12T06:30:21.361Z,63.92
2018-10-12T06:32:49.755Z,63.37
2018-10-12T06:35:18.164Z,63.04
2018-10-12T06:37:46.566Z,62.80
2018-10-12T06:40:14.929Z,62.91
2018-10-12T06:42:43.729Z,63.12
2018-10-12T06:45:12.151Z,62.34
2018-10-12T06:47:40.524Z,62.10
2018-10-12T06:50:08.953Z,62.08
2018-10-12T06:52:37.834Z,61.38
2018-10-12T06:55:07.876Z,61.54
2018-10-12T06:57:36.285Z,61.83
2018-10-12T07:00:05.524Z,61.46
2018-10-12T07:02:33.861Z,61.39
2018-10-12T07:05:03.270Z,60.78
2018-10-12T07:07:31.690Z,60.09
2018-10-12T07:10:01.148Z,59.53
2018-10-12T07:12:29.533Z,60.09
2018-10-12T07:14:57.939Z,59.35
2018-10-12T07:17:26.301Z,59.40
2018-10-12T07:19:54.658Z,58.49
2018-10-12T07:22:23.080Z,58.02
2018-10-12T07:24:51.447Z,57.35
2018-10-12T07:27:19.861Z,57.25
2018-10-12T07:29:48.208Z,57.74
2018-10-12T07:32:16.576Z,57.38
2018-10-12T07:34:44.924Z,57.27
2018-10-12T07:37:13.347Z,56.75
2018-10-12T07:39:41.669Z,56.08
2018-10-12T07:42:11.149Z,56.38
2018-10-12T07:44:39.468Z,55.86
2018-10-12T07:47:07.851Z,56.47
2018-10-12T07:49:37.225Z,55.73
2018-10-12T07:52:05.698Z,55.79
2018-10-12T07:54:34.101Z,55.30
2018-10-12T07:57:07.781Z,56.12
2018-10-12T07:59:36.348Z,54.89
2018-10-12T08:02:04.824Z,55.23
2018-10-12T08:04:33.237Z,55.05
2018-10-12T08:07:01.697Z,54.83
2018-10-12T08:09:30.100Z,54.06
2018-10-12T08:11:58.497Z,54.13
2018-10-12T08:14:27.864Z,53.79
2018-10-12T08:16:56.268Z,54.65
2018-10-12T08:19:24.676Z,54.07
2018-10-12T08:21:53.054Z,53.50
2018-10-12T08:24:21.430Z,54.57
2018-10-12T08:26:49.893Z,53.95
2018-10-12T08:29:18.197Z,54.67
2018-10-12T08:31:46.597Z,54.59
2018-10-12T08:34:15.168Z,54.17
2018-10-12T08:36:43.700Z,54.03
2018-10-12T08:39:13.205Z,53.57
2018-10-12T08:41:41.741Z,53.31
2018-10-12T08:44:11.436Z,53.35
2018-10-12T08:46:39.848Z,52.94
2018-10-12T08:49:09.220Z,53.16
2018-10-12T08:51:37.572Z,52.83
2018-10-12T08:54:06.066Z,52.46
2018-10-12T08:56:34.607Z,51.81
2018-10-12T08:59:03.032Z,52.25
2018-10-12T09:01:31.456Z,52.80
2018-10-12T09:04:00.852Z,52.90
2018-10-12T09:06:29.297Z,53.11
2018-10-12T09:08:57.651Z,52.74
2018-10-12T09:11:26.056Z,52.87
2018-10-12T09:13:55.515Z,52.65
2018-10-12T09:16:24.102Z,51.79
2018-10-12T09:18:52.389Z,51.73
2018-10-12T09:21:20.768Z,52.70
2018-10-12T09:23:49.244Z,52.50
2018-10-12T09:26:17.604Z,52.25
2018-10-12T09:28:45.981Z,51.95
2018-10-12T09:31:14.408Z,51.82
2018-10-12T09:33:42.775Z,52.24
2018-10-12T09:36:11.147Z,52.69
2018-10-12T09:38:39.494Z,52.77
2018-10-12T09:41:07.856Z,52.19
2018-10-12T09:43:36.327Z,51.91
2018-10-12T09:46:09.172Z,52.75
2018-10-12T09:48:37.577Z,52.30
2018-10-12T09:51:05.980Z,52.29
2018-10-12T09:53:34.333Z,52.22
2018-10-12T09:56:02.788Z,51.97
2018-10-12T09:58:31.328Z,51.36
2018-10-12T10:01:05.920Z,51.52
2018-10-12T10:03:39.660Z,52.30
2018-10-12T10:06:08.112Z,51.01
2018-10-12T10:08:36.676Z,51.27
2018-10-12T10:11:05.012Z,51.66
2018-10-12T10:13:34.433Z,51.01
2018-10-12T10:16:02.795Z,52.17
2018-10-12T10:18:31.143Z,51.66
2018-10-12T10:20:59.592Z,51.68
2018-10-12T10:23:27.965Z,52.91
2018-10-12T10:25:56.328Z,52.26
2018-10-12T10:28:24.820Z,52.28
2018-10-12T10:30:53.184Z,53.15
2018-10-12T10:33:21.520Z,53.26
2018-10-12T10:35:49.872Z,52.90
2018-10-12T10:38:18.252Z,52.93
2018-10-12T10:40:46.796Z,53.12
2018-10-12T10:43:15.140Z,52.81
2018-10-12T10:45:43.608Z,52.12
2018-10-12T10:48:13.089Z,51.42
2018-10-12T10:50:41.468Z,51.86
2018-10-12T10:53:09.840Z,52.06
2018-10-12T10:55:38.255Z,51.53
2018-10-12T10:58:07.083Z,50.71
2018-10-12T11:00:35.504Z,51.16
2018-10-12T11:03:04.668Z,50.99
2018-10-12T11:05:33.039Z,50.86
2018-10-12T11:08:02.430Z,50.68
2018-10-12T11:10:30.785Z,51.04
2018-10-12T11:12:59.189Z,50.01
2018-10-12T11:15:31.196Z,50.51
2018-10-12T11:17:59.549Z,50.36
2018-10-12T11:20:27.903Z,50.81
2018-10-12T11:22:56.424Z,51.10
2018-10-12T11:25:24.776Z,49.72
2018-10-12T11:27:53.154Z,52.56
2018-10-12T11:30:21.506Z,52.32
2018-10-12T11:32:49.978Z,51.15
2018-10-12T11:35:19.313Z,51.06
2018-10-12T11:37:47.788Z,50.77
2018-10-12T11:40:17.157Z,51.34
2018-10-12T11:42:56.821Z,51.72
2018-10-12T11:45:26.257Z,51.41
2018-10-12T11:47:54.609Z,51.74
2018-10-12T11:50:23.150Z,50.93
2018-10-12T11:52:52.460Z,50.37
2018-10-12T11:55:20.817Z,50.49
2018-10-12T11:57:49.157Z,50.34
2018-10-12T12:00:17.609Z,50.34
2018-10-12T12:02:46.581Z,50.06
2018-10-12T12:05:14.950Z,49.59
2018-10-12T12:07:43.338Z,49.22
2018-10-12T12:10:11.756Z,49.41
2018-10-12T12:12:40.125Z,49.50
2018-10-12T12:15:08.488Z,49.11
2018-10-12T12:17:36.860Z,48.22
2018-10-12T12:20:05.244Z,48.61
2018-10-12T12:22:33.604Z,48.53
2018-10-12T12:25:02.053Z,49.11
2018-10-12T12:27:30.421Z,48.36
2018-10-12T12:29:58.780Z,48.42
2018-10-12T12:32:27.136Z,48.16
2018-10-12T12:34:55.581Z,48.72
2018-10-12T12:37:23.880Z,47.22
2018-10-12T12:39:52.913Z,47.60
2018-10-12T12:42:21.324Z,48.41
2018-10-12T12:44:52.711Z,48.56
2018-10-12T12:47:21.198Z,48.17
2018-10-12T12:49:49.857Z,49.28
2018-10-12T12:52:18.230Z,48.82
2018-10-12T12:54:47.704Z,48.88
2018-10-12T12:57:16.057Z,48.51
2018-10-12T12:59:44.394Z,48.24
2018-10-12T13:02:12.756Z,48.77
2018-10-12T13:04:41.120Z,47.97
2018-10-12T13:07:10.456Z,46.79
2018-10-12T13:09:38.923Z,44.24
2018-10-12T13:12:07.307Z,41.96
2018-10-12T13:14:36.806Z,38.92
2018-10-12T13:17:05.151Z,41.18
2018-10-12T13:23:05.137Z,45.19
2018-10-12T13:25:33.531Z,46.08
2018-10-12T13:28:01.877Z,45.12
2018-10-12T13:30:31.328Z,46.56
2018-10-12T13:32:59.721Z,46.14
2018-10-12T13:35:28.089Z,45.83
2018-10-12T13:37:56.489Z,46.52
2018-10-12T13:40:24.885Z,46.42
2018-10-12T13:42:54.281Z,46.22
2018-10-12T13:45:22.885Z,46.17
2018-10-12T13:47:51.303Z,45.85
2018-10-12T13:50:19.721Z,46.25
2018-10-12T13:52:48.133Z,46.16
2018-10-12T13:55:16.590Z,46.13
2018-10-12T13:57:44.956Z,46.17
2018-10-12T14:00:13.384Z,45.87
2018-10-12T14:02:41.713Z,45.38
2018-10-12T14:05:10.084Z,45.75
2018-10-12T14:07:38.484Z,45.94
2018-10-12T14:10:06.893Z,45.48
2018-10-12T14:12:35.242Z,45.80
2018-10-12T14:15:03.650Z,46.21
2018-10-12T14:17:32.008Z,45.38
2018-10-12T14:20:00.476Z,45.41
2018-10-12T14:22:29.997Z,45.27
2018-10-12T14:24:58.369Z,45.36
2018-10-12T14:27:26.759Z,45.64
2018-10-12T14:29:55.128Z,44.85
2018-10-12T14:32:24.581Z,45.14
2018-10-12T14:34:53.996Z,45.08
2018-10-12T14:37:22.393Z,45.49
2018-10-12T14:39:50.781Z,45.91
2018-10-12T14:42:19.133Z,45.20
2018-10-12T14:44:47.504Z,45.35
2018-10-12T14:47:16.017Z,44.79
2018-10-12T14:49:44.392Z,42.99
2018-10-12T14:52:12.753Z,41.84
2018-10-12T14:54:41.121Z,41.24
2018-10-12T14:57:14.562Z,41.54
2018-10-12T14:59:42.949Z,41.57
2018-10-12T15:02:11.284Z,42.03
2018-10-12T15:04:39.655Z,41.83
2018-10-12T15:07:08.053Z,43.13
2018-10-12T15:09:36.496Z,43.21
2018-10-12T15:12:04.858Z,42.73
2018-10-12T15:14:44.104Z,39.44
2018-10-12T15:17:12.483Z,35.20
2018-10-12T15:19:41.359Z,32.35
2018-10-12T15:22:09.772Z,27.72
2018-10-12T15:24:38.141Z,27.53
2018-10-12T15:27:07.762Z,26.28
2018-10-12T15:29:36.671Z,26.45
2018-10-12T15:32:06.386Z,29.37
2018-10-12T15:34:34.699Z,33.84
2018-10-12T15:37:03.075Z,38.15
2018-10-12T15:39:32.526Z,40.81
2018-10-12T15:42:00.950Z,42.37
2018-10-12T15:44:29.736Z,43.81
2018-10-12T15:46:58.145Z,45.25
2018-10-12T15:49:26.513Z,47.08
2018-10-12T15:51:54.895Z,48.23
2018-10-12T15:54:23.236Z,49.18
2018-10-12T15:56:51.746Z,49.26
2018-10-12T15:59:20.126Z,49.76
2018-10-12T16:01:48.509Z,51.14
2018-10-12T16:04:16.876Z,51.70
2018-10-12T16:06:45.372Z,51.84
2018-10-12T16:09:13.779Z,52.74
2018-10-12T16:16:40.199Z,54.56
2018-10-12T16:19:08.604Z,54.94
2018-10-12T16:21:36.960Z,55.34
2018-10-12T16:24:10.180Z,55.88
2018-10-12T16:26:39.540Z,56.64
2018-10-12T16:29:07.982Z,57.00
2018-10-12T16:31:36.298Z,57.23
2018-10-12T16:34:05.982Z,57.62
2018-10-12T16:36:34.270Z,58.26
2018-10-12T16:39:02.633Z,58.58
2018-10-12T16:41:30.948Z,59.08
2018-10-12T16:43:59.234Z,59.05
2018-10-12T16:46:27.733Z,59.78
2018-10-12T16:48:56.136Z,59.89
2018-10-12T16:51:24.500Z,60.33
2018-10-12T16:53:52.863Z,61.01
2018-10-12T16:56:21.212Z,61.63
2018-10-12T16:58:49.492Z,61.74
2018-10-12T17:01:17.794Z,62.35
2018-10-12T17:03:46.205Z,62.79
2018-10-12T17:06:14.627Z,62.36
2018-10-12T17:08:43.036Z,62.96
2018-10-12T17:11:11.363Z,63.26
2018-10-12T17:13:39.701Z,62.96
2018-10-12T17:16:08.068Z,63.12
2018-10-12T17:18:36.388Z,63.02
2018-10-12T17:21:04.752Z,62.95
2018-10-12T17:23:33.128Z,63.71
2018-10-12T17:26:01.643Z,63.94
2018-10-12T17:28:30.081Z,63.83
2018-10-12T17:30:58.452Z,63.69
2018-10-12T17:33:26.780Z,64.19
2018-10-12T17:35:55.223Z,64.17
2018-10-12T17:38:23.614Z,64.38
2018-10-12T17:40:51.981Z,64.49
2018-10-12T17:43:20.474Z,64.35
2018-10-12T17:45:48.860Z,64.41
2018-10-12T17:48:17.232Z,64.62
2018-10-12T17:50:45.593Z,64.17
2018-10-12T17:53:13.980Z,64.72
2018-10-12T17:55:42.333Z,64.63
2018-10-12T17:58:10.689Z,65.23
2018-10-12T18:00:39.102Z,65.39
2018-10-12T18:03:07.470Z,65.27
2018-10-12T18:05:35.808Z,65.06
2018-10-12T18:08:04.272Z,65.36
2018-10-12T18:10:32.668Z,65.30
2018-10-12T18:13:01.013Z,65.39
2018-10-12T18:15:30.505Z,65.66
2018-10-12T18:17:58.902Z,65.39
2018-10-12T18:20:28.353Z,65.56
2018-10-12T18:22:56.862Z,65.56
2018-10-12T18:25:25.217Z,66.00
2018-10-12T18:27:53.558Z,66.15
2018-10-12T18:30:22.369Z,66.30
2018-10-12T18:32:50.728Z,66.32
2018-10-12T18:35:19.101Z,66.53
2018-10-12T18:37:47.471Z,66.15
2018-10-12T18:40:15.830Z,66.13
2018-10-12T18:42:44.184Z,66.30
2018-10-12T18:45:12.542Z,66.63
2018-10-12T18:47:40.965Z,66.34
2018-10-12T18:50:09.308Z,66.54
2018-10-12T18:52:37.712Z,66.52
2018-10-12T18:55:06.068Z,67.00
2018-10-12T18:57:35.435Z,66.61
2018-10-12T19:00:05.934Z,67.14
2018-10-12T19:02:35.588Z,66.71
2018-10-12T19:05:04.136Z,66.67
2018-10-12T19:07:32.459Z,67.18
2018-10-12T19:10:01.016Z,67.23
2018-10-12T19:12:29.376Z,66.93
2018-10-12T19:14:57.729Z,67.04
2018-10-12T19:17:26.108Z,67.26
2018-10-12T19:19:54.537Z,67.40
2018-10-12T19:22:22.908Z,66.91
2018-10-12T19:24:51.296Z,67.14
2018-10-12T19:27:20.681Z,67.10
2018-10-12T19:29:49.045Z,67.26
2018-10-12T19:32:17.477Z,67.44
2018-10-12T19:34:45.848Z,67.22
2018-10-12T19:37:14.210Z,67.30
2018-10-12T19:39:42.657Z,67.73
2018-10-12T19:42:11.081Z,67.81
2018-10-12T19:44:39.465Z,67.78
2018-10-12T19:47:07.845Z,67.44
2018-10-12T19:49:36.233Z,67.40
2018-10-12T19:52:04.637Z,67.62
2018-10-12T19:54:33.075Z,67.47
2018-10-12T19:57:01.425Z,67.88
2018-10-12T19:59:29.893Z,67.60
2018-10-12T20:01:58.245Z,67.36
2018-10-12T20:04:26.622Z,67.35
2018-10-12T20:06:54.978Z,67.29
2018-10-12T20:09:23.685Z,67.43
2018-10-12T20:11:52.073Z,67.20
2018-10-12T20:14:20.448Z,67.26
2018-10-12T20:16:48.800Z,67.29
2018-10-12T20:19:17.164Z,67.11
2018-10-12T20:21:45.516Z,67.03
2018-10-12T20:24:13.855Z,67.25
2018-10-12T20:26:42.232Z,66.84
2018-10-12T20:29:10.609Z,67.09
2018-10-12T20:31:39.050Z,66.65
2018-10-12T20:34:07.324Z,67.03
2018-10-12T20:36:35.676Z,66.74
2018-10-12T20:39:05.308Z,66.88
2018-10-12T20:41:33.744Z,67.31
2018-10-12T20:44:02.116Z,66.48
2018-10-12T20:46:30.507Z,67.07
2018-10-12T20:48:58.860Z,67.18
2018-10-12T20:51:27.232Z,67.20
2018-10-12T20:53:55.578Z,68.06
2018-10-12T20:56:24.041Z,68.00
2018-10-12T20:58:52.430Z,68.07
2018-10-12T21:01:20.872Z,67.46
2018-10-12T21:03:49.275Z,67.46
2018-10-12T21:06:17.589Z,67.21
2018-10-12T21:08:45.944Z,67.06
2018-10-12T21:11:14.341Z,66.88
2018-10-12T21:13:42.688Z,66.33
2018-10-12T21:16:11.049Z,66.20
2018-10-12T21:18:39.419Z,66.47
2018-10-12T21:21:07.842Z,66.01
2018-10-12T21:23:36.209Z,66.11
2018-10-12T21:26:05.640Z,64.79
2018-10-12T21:28:34.064Z,65.17
2018-10-12T21:31:02.568Z,65.58
2018-10-12T21:33:30.928Z,65.26
2018-10-12T21:35:59.296Z,65.38
2018-10-12T21:38:27.640Z,65.16
2018-10-12T21:40:56.018Z,64.72
2018-10-12T21:43:24.372Z,64.39
2018-10-12T21:45:52.781Z,64.48
2018-10-12T21:48:21.169Z,64.03
2018-10-12T21:50:49.874Z,63.58
2018-10-12T21:53:19.584Z,62.66
2018-10-12T21:55:48.269Z,62.84
2018-10-12T21:58:16.638Z,62.80
2018-10-12T22:00:49.161Z,62.84
2018-10-12T22:03:18.597Z,62.74
2018-10-12T22:05:46.964Z,63.10
2018-10-12T22:08:20.438Z,62.80
2018-10-12T22:10:48.965Z,62.56
2018-10-12T22:13:18.370Z,62.25
2018-10-12T22:15:46.752Z,62.00
2018-10-12T22:18:15.236Z,62.03
2018-10-12T22:20:46.077Z,62.42
2018-10-12T22:23:14.466Z,62.14
2018-10-12T22:25:42.911Z,62.08
2018-10-12T22:28:11.708Z,62.30
2018-10-12T22:30:40.562Z,61.93
2018-10-12T22:33:10.759Z,62.19
2018-10-12T22:35:41.222Z,61.61
2018-10-12T22:38:10.323Z,61.37
2018-10-12T22:40:40.895Z,61.48
2018-10-12T22:43:10.761Z,61.34
2018-10-12T22:45:42.454Z,61.61
2018-10-12T22:48:11.597Z,61.90
2018-10-12T22:50:40.639Z,61.96
2018-10-12T22:53:09.945Z,62.46
2018-10-12T22:55:39.889Z,62.67
2018-10-12T22:58:08.508Z,62.63
2018-10-12T23:00:38.991Z,62.48
2018-10-12T23:03:07.368Z,63.05
2018-10-12T23:05:35.836Z,63.05
2018-10-12T23:08:04.299Z,63.51
2018-10-12T23:10:32.681Z,63.31
2018-10-12T23:13:01.142Z,63.17
2018-10-12T23:15:30.581Z,63.34
2018-10-12T23:17:58.928Z,63.40
2018-10-12T23:20:27.276Z,63.64
2018-10-12T23:22:55.721Z,63.36
2018-10-12T23:25:24.074Z,64.02
2018-10-12T23:27:53.452Z,64.34
2018-10-12T23:30:21.841Z,64.54
2018-10-12T23:32:50.212Z,64.37
2018-10-12T23:42:25.681Z,65.30
2018-10-12T23:44:54.034Z,63.87
2018-10-12T23:47:22.440Z,64.68
2018-10-12T23:49:50.788Z,64.47
2018-10-12T23:52:19.159Z,64.87
2018-10-12T23:54:47.776Z,65.20
2018-10-12T23:57:16.145Z,64.80
2018-10-12T23:59:44.612Z,64.15
